Tiempo atmosférico en la estación meteorológica de Hermigua, Santa Cruz de Tenerife (252 m.)



Fecha
DESCASC
Temp. máxima en grados centígrados (hora)
DESCASC
Temp. mínima en grados centígrados (hora)
DESCASC
Temp. media en grados centígrados
DESCASC
Racha de viento máxima en m/sg (hora)
DESCASC
Velocidad máxima media en intervalos de 10 minutos(hora)
DESCASC
Precipitaciones diarias en mm
DESCASC
Precipitaciones de 00:00 a 06:00 en mm
DESCASC
Precipitaciones de 06:00 a 12:00 en mm
DESCASC
Precipitaciones de 12:00 a 18:00 en mm
DESCASC
Precipitaciones de 18:00 a 24:00 en mm
DESCASC
09-05-2019 22.3 (16:50) 17.1 (00:00) 19.7 7.22 (15:20) 3.33 (15:00) 0 0 0 0 0
15-05-2019 21.6 (14:40) 17.6 (00:00) 19.6 6.67 (15:10) 3.06 (14:40) 0 0 0 0 0
11-05-2019 22.2 (15:40) 16.6 (00:00) 19.4 7.5 (13:50) 3.33 (13:20) 0 0 0 0 0
22-05-2019 21.1 (14:50) 17.1 (07:10) 19.1 8.06 (11:20) 3.33 (11:00) 0 0 0 0 0
20-05-2019 21.8 (15:40) 16.5 (06:10) 19.1 7.78 (01:10) 3.33 (23:00) 0 0 0 0 0
16-05-2019 21.9 (15:40) 16.3 (00:00) 19.1 6.39 (17:00) 3.06 (16:00) 0 0 0 0 0
10-05-2019 21.4 (15:00) 16.5 (00:00) 18.9 6.11 (13:40) 3.33 (14:40) 0 0 0 0 0
23-05-2019 20.9 (15:40) 17 (04:40) 18.9 9.44 (11:50) 3.61 (15:40) 0 0 0 0 0
21-05-2019 21.2 (17:00) 15.7 (04:30) 18.5 7.5 (09:50) 3.06 (13:40) 0 0 0 0 0
14-05-2019 23.1 (15:50) 13.8 (00:00) 18.5 7.78 (12:20) 3.33 (12:20) 0 0 0 0 0
05-05-2019 21 (16:00) 15.8 (00:00) 18.4 6.67 (15:50) 3.06 (14:30) 0 0 0 0 0
13-05-2019 22 (13:20) 14.4 (00:00) 18.2 7.78 (14:20) 3.61 (14:10) 0 0 0 0 0
30-04-2019 19.6 (14:20) 16.7 (00:00) 18.2 7.22 (23:40) 3.33 (23:50) 0 0 0 0 0
28-04-2019 20 (13:50) 16.3 (00:00) 18.1 7.22 (13:10) 3.61 (13:10) 0 0 0 0 0
02-05-2019 20.2 (14:10) 15.8 (06:10) 18 9.17 (01:20) 4.17 (14:30) 0 0 0 0 0
06-05-2019 20.3 (16:20) 15.7 (00:00) 18 6.39 (13:40) 3.06 (14:50) 0 0 0 0 0
17-05-2019 20.8 (13:30) 15.3 (00:00) 18 6.94 (22:40) 2.78 (04:10) 0 0 0 0 0
29-04-2019 20.4 (14:00) 15.7 (00:00) 18 7.5 (14:20) 3.33 (14:30) 0 0 0 0 0
19-05-2019 19.1 (13:30) 16.6 (00:00) 17.9 8.61 (09:10) 3.33 (13:40) 0 0 0 0 0
04-05-2019 20.2 (14:20) 15.6 (00:00) 17.9 6.94 (14:30) 3.06 (14:30) 0 0 0 0 0
03-05-2019 20.4 (14:40) 15.3 (00:00) 17.8 6.94 (18:20) 3.61 (00:50) 0 0 0 0 0
01-05-2019 19.5 (13:50) 16.1 (00:00) 17.8 7.78 (15:40) 4.44 (14:40) 0 0 0 0 0
18-05-2019 18.5 (13:20) 16.9 (00:00) 17.7 7.78 (08:40) 3.33 (09:20) 0 0 0 0 0
07-05-2019 20.2 (15:50) 14.1 (00:00) 17.2 6.67 (17:10) 3.33 (16:00) 0 0 0 0 0
26-04-2019 18.6 (15:40) 15.7 (00:00) 17.2 9.17 (08:40) 4.72 (08:40) 0 0 0 0 0
08-05-2019 21 (16:00) 13.1 (00:00) 17.1 6.67 (14:50) 3.61 (14:20) 0 0 0 0 0
12-05-2019 21.3 (14:10) 13 (00:00) 17.1 7.5 (13:20) 3.61 (14:50) 0 0 0 0 0
27-04-2019 18.4 (13:30) 15.6 (00:00) 17 9.17 (01:30) 3.89 (02:30) 0 0 0 0 0

Gráficas

Temp. máximas Temp. mínimas Temp. medias Precipitaciones Rachas de viento máximas Velocidades máximas media en intervalos de 10 minutos

Datos horarios

Fecha y hora oficial Temperatura (ºC) Velocidad del viento (km/h) Dirección del viento Racha (km/h) Dirección de racha Precipitación (mm) Presión (hPa) Tendencia (hPa) Humedad (%)
2019-05-25 23:00:00 17.6 5 Nordeste 14 Norte 0 -- -- 79
2019-05-25 22:00:00 17.7 6 Norte 24 Nordeste 0 -- -- 82
2019-05-25 21:00:00 17.8 9 Norte 26 Nordeste 0 -- -- 83
2019-05-25 20:00:00 18.2 7 Norte 25 Nordeste 0 -- -- 82
2019-05-25 19:00:00 18.9 8 Nordeste 21 Norte 0 -- -- 79
2019-05-25 18:00:00 19.1 8 Nordeste 20 Este 0 -- -- 79
2019-05-25 17:00:00 19.6 7 Nordeste 22 Norte 0 -- -- 76
2019-05-25 16:00:00 20.1 8 Nordeste 23 Norte 0 -- -- 75
2019-05-25 15:00:00 20.2 10 Nordeste 23 Nordeste 0 -- -- 77
2019-05-25 14:00:00 20.2 8 Nordeste 23 Nordeste 0 -- -- 76
2019-05-25 13:00:00 18.9 11 Nordeste 24 Nordeste 0 -- -- 83
2019-05-25 12:00:00 18.7 10 Nordeste 22 Norte 0 -- -- 81
2019-05-25 11:00:00 18.2 9 Nordeste 21 Este 0 -- -- 84
2019-05-25 10:00:00 17.5 8 Nordeste 25 Nordeste 0 -- -- 89
2019-05-25 09:00:00 17.8 7 Nordeste 31 Nordeste 0 -- -- 81
2019-05-25 08:00:00 17.1 5 Nordeste 25 Nordeste 0 -- -- 86
2019-05-25 07:00:00 17.1 6 Nordeste 24 Nordeste 0 -- -- 86
2019-05-25 06:00:00 17.4 8 Norte 20 Nordeste 0 -- -- 80
2019-05-25 05:00:00 17.4 6 Nordeste 19 Este 0 -- -- 84
2019-05-25 04:00:00 17.3 4 Norte 14 Este 0 -- -- 81
2019-05-25 03:00:00 17.3 4 Norte 14 Norte 0 -- -- 80
2019-05-25 02:00:00 17.4 3 Nordeste 20 Nordeste 0 -- -- 81
2019-05-25 01:00:00 17.7 7 Este 23 Nordeste 0 -- -- 79
2019-05-25 00:00:00 17.8 4 Nordeste 15 Norte 0 -- -- 79
2019-05-24 23:00:00 17.9 6 Nordeste 20 Nordeste 0 -- -- 80
2019-05-24 22:00:00 18 6 Nordeste 21 Nordeste 0 -- -- 80
2019-05-24 21:00:00 18.2 7 Nordeste 24 Norte 0 -- -- 79
2019-05-24 20:00:00 18.5 8 Nordeste 23 Nordeste 0 -- -- 80
2019-05-24 19:00:00 18.8 9 Nordeste 30 Norte 0 -- -- 80
2019-05-24 18:00:00 19.4 9 Nordeste 19 Nordeste 0 -- -- 78
2019-05-24 17:00:00 19.6 9 Nordeste 21 Nordeste 0 -- -- 79
2019-05-24 16:00:00 20.3 9 Nordeste 20 Nordeste 0 -- -- 74
2019-05-24 15:00:00 21 9 Nordeste 24 Nordeste 0 -- -- 69
2019-05-24 14:00:00 20.6 9 Norte 23 Nordeste 0 -- -- 69
2019-05-24 13:00:00 20.4 10 Nordeste 22 Norte 0 -- -- 71
2019-05-24 12:00:00 19.2 8 Norte 24 Nordeste 0 -- -- 75
2019-05-24 11:00:00 18.8 8 Nordeste 26 Nordeste 0 -- -- 76
2019-05-24 10:00:00 18.2 7 Nordeste 21 Nordeste 0 -- -- 78
2019-05-24 09:00:00 17.6 7 Norte 21 Nordeste 0 -- -- 79
2019-05-24 08:00:00 17.3 8 Nordeste 19 Nordeste 0 -- -- 79
2019-05-24 07:00:00 17.2 7 Nordeste 19 Norte 0 -- -- 84
2019-05-24 06:00:00 17.2 7 Nordeste 22 Norte 0 -- -- 84
2019-05-24 05:00:00 17.3 9 Norte 23 Nordeste 0 -- -- 82
2019-05-24 04:00:00 17.2 6 Norte 23 Nordeste 0 -- -- 80
2019-05-24 03:00:00 17.3 5 Nordeste 22 Nordeste 0 -- -- 82
2019-05-24 02:00:00 17.3 9 Nordeste 22 Nordeste 0 -- -- 78
2019-05-24 01:00:00 17.4 7 Nordeste 22 Nordeste 0 -- -- 80
2019-05-24 00:00:00 17.6 8 Norte 18 Nordeste 0 -- -- 77
2019-05-23 23:00:00 17.7 7 Nordeste 25 Nordeste 0 -- -- 82
2019-05-23 22:00:00 18 8 Norte 21 Norte 0 -- -- 77
2019-05-23 21:00:00 18 9 Nordeste 23 Norte 0 -- -- 82
2019-05-23 20:00:00 18.4 8 Norte 21 Este 0 -- -- 79
2019-05-23 19:00:00 19.1 8 Norte 22 Norte 0 -- -- 74
2019-05-23 18:00:00 19.6 10 Norte 26 Nordeste 0 -- -- 74
2019-05-23 17:00:00 19.7 9 Norte 27 Nordeste 0 -- -- 74
2019-05-23 16:00:00 20.8 13 Norte 29 Este 0 -- -- 73
2019-05-23 15:00:00 20.6 9 Norte 26 Norte 0 -- -- 70
2019-05-23 14:00:00 19.9 9 Nordeste 27 Norte 0 -- -- 74
2019-05-23 13:00:00 20.7 9 Norte 26 Noroeste 0 -- -- 68
2019-05-23 12:00:00 19.1 9 Norte 34 Nordeste 0 -- -- 76
2019-05-23 11:00:00 18.7 10 Nordeste 25 Noroeste 0 -- -- 81
2019-05-23 10:00:00 18.9 11 Nordeste 29 Nordeste 0 -- -- 77
2019-05-23 09:00:00 18 9 Norte 23 Norte 0 -- -- 83
2019-05-23 08:00:00 17.5 13 Norte 27 Norte 0 -- -- 82
2019-05-23 07:00:00 17.4 9 Norte 22 Este 0 -- -- 82
2019-05-23 06:00:00 17.5 9 Norte 27 Norte 0 -- -- 82
2019-05-23 05:00:00 17 6 Norte 22 Nordeste 0 -- -- 87
2019-05-23 04:00:00 17.4 10 Norte 22 Nordeste 0 -- -- 84
2019-05-23 03:00:00 17.2 9 Nordeste 30 Nordeste 0 -- -- 87
2019-05-23 02:00:00 17.6 7 Nordeste 24 Noroeste 0 -- -- 84
2019-05-23 01:00:00 17.3 10 Norte 32 Nordeste 0 -- -- 82
2019-05-23 00:00:00 18.1 9 Norte 25 Nordeste 0 -- -- 76
2019-05-22 23:00:00 18.2 11 Norte 23 Norte 0 -- -- 77
2019-05-22 22:00:00 17.9 9 Norte 27 Nordeste 0 -- -- 84
2019-05-22 21:00:00 17.9 6 Nordeste 25 Norte 0 -- -- 87
2019-05-22 20:00:00 18.2 6 Norte 23 Nordeste 0 -- -- 85
2019-05-22 19:00:00 18.3 7 Norte 24 Nordeste 0 -- -- 81
2019-05-22 18:00:00 18.9 9 Norte 22 Nordeste 0 -- -- 76
2019-05-22 17:00:00 19.6 8 Norte 23 Nordeste 0 -- -- 73
2019-05-22 16:00:00 20.4 9 Nordeste 23 Norte 0 -- -- 73
2019-05-22 15:00:00 21 9 Norte 23 Norte 0 -- -- 69
2019-05-22 14:00:00 19.9 9 Norte 26 Norte 0 -- -- 74
2019-05-22 13:00:00 19.3 9 Norte 20 Norte 0 -- -- 80
2019-05-22 12:00:00 18.6 8 Norte 29 Nordeste 0 -- -- 77
2019-05-22 11:00:00 17.9 12 Nordeste 28 Nordeste 0 -- -- 90
2019-05-22 10:00:00 18.6 8 Norte 18 Nordeste 0 -- -- 80
2019-05-22 09:00:00 17.9 8 Nordeste 17 Nordeste 0 -- -- 85
2019-05-22 08:00:00 17.4 4 Norte 14 Nordeste 0 -- -- 87
2019-05-22 07:00:00 17.2 6 Norte 22 Nordeste 0 -- -- 86
2019-05-22 06:00:00 17.4 8 Nordeste 21 Norte 0 -- -- 88
2019-05-22 05:00:00 17.5 6 Norte 20 Nordeste 0 -- -- 83
2019-05-22 04:00:00 17.4 7 Nordeste 16 Nordeste 0 -- -- 86
2019-05-22 03:00:00 17.4 7 Norte 24 Nordeste 0 -- -- 83
2019-05-22 02:00:00 17.6 5 Norte 22 Norte 0 -- -- 88
2019-05-22 01:00:00 17.6 6 Nordeste 21 Norte 0 -- -- 89
2019-05-22 00:00:00 17.7 6 Norte 23 Nordeste 0 -- -- 86
2019-05-21 23:00:00 17.7 5 Norte 19 Nordeste 0 -- -- 86
2019-05-21 22:00:00 17.7 6 Nordeste 19 Norte 0 -- -- 84
2019-05-21 21:00:00 17.8 7 Norte 23 Nordeste 0 -- -- 81
2019-05-21 20:00:00 18.3 8 Norte 21 Nordeste 0 -- -- 76
2019-05-21 19:00:00 19.2 9 Norte 19 Norte 0 -- -- 69
2019-05-21 18:00:00 19.3 8 Nordeste 23 Este 0 -- -- 74
2019-05-21 17:00:00 21.2 7 Norte 21 Norte 0 -- -- 60
2019-05-21 16:00:00 20.4 8 Norte 21 Norte 0 -- -- 67
2019-05-21 15:00:00 20.7 10 Nordeste 21 Este 0 -- -- 68
2019-05-21 14:00:00 20.5 10 Nordeste 23 Nordeste 0 -- -- 67
2019-05-21 13:00:00 20.1 8 Nordeste 18 Norte 0 -- -- 73
2019-05-21 12:00:00 19 7 Norte 13 Nordeste 0 -- -- 76
2019-05-21 11:00:00 17.6 5 Norte 15 Norte 0 -- -- 81
2019-05-21 10:00:00 17.3 7 Este 27 Nordeste 0 -- -- 88
2019-05-21 09:00:00 17.7 5 Norte 17 Nordeste 0 -- -- 80
2019-05-21 08:00:00 17.3 3 Este 11 Nordeste 0 -- -- 74
2019-05-21 07:00:00 16.9 5 Nordeste 14 Norte 0 -- -- 77
2019-05-21 06:00:00 16.6 4 Norte 18 Norte 0 -- -- 79
2019-05-21 05:00:00 15.9 4 Este 8 Noroeste 0 -- -- 83
2019-05-21 04:00:00 16.5 3 Nordeste 13 Nordeste 0 -- -- 81
2019-05-21 03:00:00 16.7 4 Norte 13 Norte 0 -- -- 82
2019-05-21 02:00:00 16.9 4 Norte 14 Nordeste 0 -- -- 82
2019-05-21 01:00:00 17.1 7 Nordeste 19 Nordeste 0 -- -- 84
2019-05-21 00:00:00 17.3 9 Norte 23 Nordeste 0 -- -- 82
2019-05-20 23:00:00 17.4 12 Norte 24 Nordeste 0 -- -- 84
2019-05-20 22:00:00 17.5 10 Norte 21 Norte 0 -- -- 84
2019-05-20 21:00:00 18 5 Norte 22 Norte 0 -- -- 79
2019-05-20 20:00:00 18.5 6 Norte 22 Norte 0 -- -- 77
2019-05-20 19:00:00 19 9 Nordeste 21 Nordeste 0 -- -- 74
2019-05-20 18:00:00 19.5 9 Norte 19 Nordeste 0 -- -- 73
2019-05-20 17:00:00 20.6 8 Norte 22 Nordeste 0 -- -- 64
2019-05-20 16:00:00 21.1 9 Norte 20 Norte 0 -- -- 66
2019-05-20 15:00:00 21.1 10 Norte 21 Nordeste 0 -- -- 64
2019-05-20 14:00:00 20.5 9 Norte 21 Norte 0 -- -- 67
2019-05-20 13:00:00 19.5 8 Nordeste 24 Nordeste 0 -- -- 77
2019-05-20 12:00:00 19.1 9 Norte 24 Noroeste 0 -- -- 77
2019-05-20 11:00:00 19.3 9 Nordeste 26 Norte 0 -- -- 70
2019-05-20 10:00:00 18.9 6 Norte 23 Norte 0 -- -- 66
2019-05-20 09:00:00 18.8 3 Norte 16 Nordeste 0 -- -- 64
2019-05-20 08:00:00 17 5 Norte 18 Noroeste 0 -- -- 81
2019-05-20 07:00:00 16.6 6 Norte 15 Norte 0 -- -- 82
2019-05-20 06:00:00 16.6 5 Norte 20 Norte 0 -- -- 85
2019-05-20 05:00:00 16.7 6 Norte 20 Norte 0 -- -- 82
2019-05-20 04:00:00 17 6 Norte 22 Nordeste 0 -- -- 80
2019-05-20 03:00:00 16.9 6 Norte 18 Nordeste 0 -- -- 80
2019-05-20 02:00:00 17.2 8 Nordeste 28 Norte 0 -- -- 78
2019-05-20 01:00:00 17.3 7 Norte 27 Norte 0 -- -- 77
2019-05-20 00:00:00 17.2 7 Nordeste 20 Nordeste 0 -- -- 81
2019-05-19 23:00:00 17.4 6 Norte 21 Norte 0 -- -- 79
2019-05-19 22:00:00 17.3 7 Nordeste 26 Nordeste 0 -- -- 79
2019-05-19 21:00:00 17.4 6 Norte 22 Norte 0 -- -- 79
2019-05-19 20:00:00 17.7 8 Nordeste 26 Norte 0 -- -- 81
2019-05-19 19:00:00 18 12 Norte 27 Norte 0 -- -- 74
2019-05-19 18:00:00 18 8 Norte 24 Nordeste 0 -- -- 79
2019-05-19 17:00:00 18.2 9 Norte 25 Nordeste 0 -- -- 80
2019-05-19 16:00:00 18.1 9 Norte 28 Norte 0 -- -- 81
2019-05-19 15:00:00 18.7 11 Nordeste 23 Nordeste 0 -- -- 79
2019-05-19 14:00:00 18.7 10 Nordeste 28 Norte 0 -- -- 78
2019-05-19 13:00:00 19 10 Nordeste 23 Norte 0 -- -- 77
2019-05-19 12:00:00 17.9 8 Norte 23 Norte 0 -- -- 82
2019-05-19 11:00:00 17.5 8 Norte 23 Este 0 -- -- 81
2019-05-19 10:00:00 17.2 10 Nordeste 31 Este 0 -- -- 84
2019-05-19 09:00:00 17.3 5 Sudeste 21 Norte 0 -- -- 75
2019-05-19 08:00:00 16.9 4 Sur 15 Nordeste 0 -- -- 76
2019-05-19 07:00:00 16.7 4 Sur 12 Nordeste 0 -- -- 76
2019-05-19 06:00:00 16.7 2 Sudeste 14 Nordeste 0 -- -- 77
2019-05-19 05:00:00 16.6 4 Sudeste 14 Este 0 -- -- 75
2019-05-19 04:00:00 16.8 4 Nordeste 18 Nordeste 0 -- -- 74
2019-05-19 03:00:00 17 6 Nordeste 18 Nordeste 0 -- -- 73
2019-05-19 02:00:00 17 7 Nordeste 18 Nordeste 0 -- -- 82
2019-05-19 01:00:00 17.1 6 Nordeste 20 Norte 0 -- -- 81
2019-05-19 00:00:00 17.2 6 Norte 23 Norte 0 -- -- 74
2019-05-18 23:00:00 17.3 7 Nordeste 25 Nordeste 0 -- -- 77
2019-05-18 22:00:00 17.2 9 Nordeste 24 Nordeste 0 -- -- 82
2019-05-18 21:00:00 17.3 9 Nordeste 20 Norte 0 -- -- 84
2019-05-18 20:00:00 17.5 8 Norte 23 Nordeste 0 -- -- 80
2019-05-18 19:00:00 17.7 10 Nordeste 21 Norte 0 -- -- 81
2019-05-18 18:00:00 17.9 9 Norte 26 Nordeste 0 -- -- 79
2019-05-18 17:00:00 18.1 10 Nordeste 27 Nordeste 0 -- -- 77
2019-05-18 16:00:00 18.3 6 Norte 22 Nordeste 0 -- -- 78
2019-05-18 15:00:00 18.2 8 Nordeste 26 Nordeste 0 -- -- 77
2019-05-18 14:00:00 18.4 7 Norte 23 Nordeste 0 -- -- 76
2019-05-18 13:00:00 18.1 8 Norte 24 Nordeste 0 -- -- 78
2019-05-18 12:00:00 17.9 9 Nordeste 25 Nordeste 0 -- -- 76
2019-05-18 11:00:00 17.4 10 Nordeste 27 Este 0 -- -- 81
2019-05-18 10:00:00 17.1 11 Nordeste 26 Norte 0 -- -- 82
2019-05-18 09:00:00 17.1 9 Norte 28 Este 0 -- -- 85
2019-05-18 08:00:00 17 5 Nordeste 21 Este 0 -- -- 86
2019-05-18 07:00:00 17 9 Nordeste 23 Nordeste 0 -- -- 85
2019-05-18 06:00:00 17 11 Nordeste 23 Nordeste 0 -- -- 86
2019-05-18 05:00:00 16.9 10 Nordeste 23 Nordeste 0 -- -- 87
2019-05-18 04:00:00 17 10 Nordeste 19 Nordeste 0 -- -- 90
2019-05-18 03:00:00 17.2 10 Nordeste 20 Nordeste 0 -- -- 88
2019-05-18 02:00:00 17.4 10 Nordeste 22 Nordeste 0 -- -- 89
2019-05-18 01:00:00 17.6 5 Norte 13 Nordeste 0 -- -- 89
2019-05-18 00:00:00 17.7 5 Norte 22 Nordeste 0 -- -- 88
2019-05-17 23:00:00 17.8 6 Nordeste 25 Nordeste 0 -- -- 89
2019-05-17 22:00:00 17.8 8 Nordeste 21 Nordeste 0 -- -- 88
2019-05-17 21:00:00 18 4 Nordeste 17 Nordeste 0 -- -- 88
2019-05-17 20:00:00 18.3 4 Nordeste 17 Nordeste 0 -- -- 86
2019-05-17 19:00:00 18.9 8 Nordeste 16 Nordeste 0 -- -- 84
2019-05-17 18:00:00 19.2 6 Nordeste 16 Norte 0 -- -- 83
2019-05-17 17:00:00 19.3 4 Nordeste 15 Nordeste 0 -- -- 84
2019-05-17 16:00:00 19.8 6 Norte 19 Nordeste 0 -- -- 81
2019-05-17 15:00:00 20.1 6 Norte 19 Nordeste 0 -- -- 80
2019-05-17 14:00:00 20.6 7 Norte 15 Nordeste 0 -- -- 78
2019-05-17 13:00:00 20.5 7 Nordeste 18 Norte 0 -- -- 79
2019-05-17 12:00:00 20.3 7 Nordeste 15 Norte 0 -- -- 79
2019-05-17 11:00:00 19.4 7 Nordeste 17 Nordeste 0 -- -- 83
2019-05-17 10:00:00 19.2 4 Nordeste 10 Norte 0 -- -- 84
2019-05-17 09:00:00 18 3 Este 10 Nordeste 0 -- -- 90
2019-05-17 08:00:00 18 3 Nordeste 10 Norte 0 -- -- 91
2019-05-17 07:00:00 18.1 3 Nordeste 12 Sur 0 -- -- 88
2019-05-17 06:00:00 17.7 5 Sur 13 Sudeste 0 -- -- 77
2019-05-17 05:00:00 17.5 6 Sur 17 Sur 0 -- -- 77
2019-05-17 04:00:00 17.1 9 Sur 15 Sur 0 -- -- 79
2019-05-17 03:00:00 16.2 8 Sur 11 Sur 0 -- -- 85
2019-05-17 02:00:00 15.6 6 Sur 9 Sur 0 -- -- 90
2019-05-17 01:00:00 15.5 4 Sudeste 9 Sur 0 -- -- 88
2019-05-17 00:00:00 16.3 3 Sur 8 Sur 0 -- -- 85
2019-05-16 23:00:00 17.6 3 Este 6 Nordeste 0 -- -- 88
2019-05-16 22:00:00 18.5 3 Este 10 Sudeste 0 -- -- 85
2019-05-16 21:00:00 18.9 4 Nordeste 11 Nordeste 0 -- -- 84
2019-05-16 20:00:00 19.2 5 Nordeste 14 Nordeste 0 -- -- 83
2019-05-16 19:00:00 20 6 Nordeste 18 Nordeste 0 -- -- 78
2019-05-16 18:00:00 20.5 6 Nordeste 20 Norte 0 -- -- 76
2019-05-16 17:00:00 21.3 10 Nordeste 23 Nordeste 0 -- -- 72
2019-05-16 16:00:00 21.7 11 Norte 22 Norte 0 -- -- 67
2019-05-16 15:00:00 21.5 10 Nordeste 21 Nordeste 0 -- -- 68
2019-05-16 14:00:00 21.4 9 Norte 19 Nordeste 0 -- -- 70
2019-05-16 13:00:00 20.9 11 Nordeste 19 Nordeste 0 -- -- 69
2019-05-16 12:00:00 20.2 6 Nordeste 17 Norte 0 -- -- 70
2019-05-16 11:00:00 20.4 9 Nordeste 16 Nordeste 0 -- -- 70
2019-05-16 10:00:00 19 2 Sudeste 8 Sur 0 -- -- 75
2019-05-16 09:00:00 18.1 4 Sur 10 Sur 0 -- -- 76
2019-05-16 08:00:00 17.3 4 Sur 9 Sur 0 -- -- 78
2019-05-16 07:00:00 17.1 4 Sur 12 Sudoeste 0 -- -- 77
2019-05-16 06:00:00 16.9 6 Sur 13 Sur 0 -- -- 80
2019-05-16 05:00:00 16.5 6 Sur 11 Sur 0 -- -- 82
2019-05-16 04:00:00 16.6 4 Sur 8 Sudoeste 0 -- -- 82
2019-05-16 03:00:00 16.8 4 Sur 8 Sur 0 -- -- 82
2019-05-16 02:00:00 16.6 4 Sur 9 Sur 0 -- -- 82
2019-05-16 01:00:00 16.7 4 Sur 6 Sur 0 -- -- 80
2019-05-16 00:00:00 17.7 2 Sudeste 8 Sudoeste 0 -- -- 76
2019-05-15 23:00:00 18.1 2 Noroeste 9 Este 0 -- -- 76
2019-05-15 22:00:00 18.3 3 Este 10 Norte 0 -- -- 78
2019-05-15 21:00:00 18.6 4 Nordeste 13 Nordeste 0 -- -- 79
2019-05-15 20:00:00 18.9 6 Nordeste 15 Nordeste 0 -- -- 79
2019-05-15 19:00:00 19.8 5 Nordeste 14 Este 0 -- -- 72
2019-05-15 18:00:00 20.1 6 Nordeste 17 Nordeste 0 -- -- 74
2019-05-15 17:00:00 20.7 6 Nordeste 19 Nordeste 0 -- -- 69
2019-05-15 16:00:00 20.7 7 Nordeste 24 Nordeste 0 -- -- 69
2019-05-15 15:00:00 21.1 10 Nordeste 23 Norte 0 -- -- 68
2019-05-15 14:00:00 21.1 8 Nordeste 18 Nordeste 0 -- -- 68
2019-05-15 13:00:00 20 8 Norte 19 Norte 0 -- -- 70
2019-05-15 12:00:00 20.1 7 Nordeste 18 Nordeste 0 -- -- 70
2019-05-15 11:00:00 18.9 6 Nordeste 19 Nordeste 0 -- -- 71
2019-05-15 10:00:00 18.8 3 Norte 9 Sudoeste 0 -- -- 72
2019-05-15 09:00:00 18.1 3 Este 9 Sudeste 0 -- -- 73
2019-05-15 08:00:00 17.7 3 Sudeste 11 Sur 0 -- -- 74
2019-05-15 07:00:00 17.7 5 Sur 10 Sur 0 -- -- 74
2019-05-15 06:00:00 18 2 Nordeste 10 Noroeste 0 -- -- 76
2019-05-15 05:00:00 18.1 2 Nordeste 6 Este 0 -- -- 77
2019-05-15 04:00:00 18.1 4 Sudeste 10 Sur 0 -- -- 70
2019-05-15 03:00:00 18.4 3 Sur 6 Sudeste 0 -- -- 73
2019-05-15 02:00:00 18.5 2 Sudeste 12 Sur 0 -- -- 71
2019-05-15 01:00:00 18.6 3 Sur 8 Sur 0 -- -- 72
2019-05-15 00:00:00 18.8 2 Sur 9 Norte 0 -- -- 74
2019-05-14 23:00:00 18.8 2 Nordeste 14 Noroeste 0 -- -- 76
2019-05-14 22:00:00 18.8 5 Norte 18 Nordeste 0 -- -- 78
2019-05-14 21:00:00 19.2 4 Nordeste 18 Nordeste 0 -- -- 74
2019-05-14 20:00:00 19.6 6 Norte 24 Nordeste 0 -- -- 72
2019-05-14 19:00:00 20.1 8 Nordeste 21 Norte 0 -- -- 69
2019-05-14 18:00:00 21.9 9 Nordeste 23 Nordeste 0 -- -- 64
2019-05-14 17:00:00 21.4 11 Nordeste 25 Nordeste 0 -- -- 65
2019-05-14 16:00:00 22.7 9 Norte 20 Nordeste 0 -- -- 63
2019-05-14 15:00:00 21.8 10 Nordeste 24 Nordeste 0 -- -- 66
2019-05-14 14:00:00 21.6 11 Norte 25 Nordeste 0 -- -- 67
2019-05-14 13:00:00 21.5 9 Nordeste 28 Norte 0 -- -- 66
2019-05-14 12:00:00 21 10 Norte 22 Norte 0 -- -- 68
2019-05-14 11:00:00 20.7 10 Norte 19 Norte 0 -- -- 68
2019-05-14 10:00:00 18.6 5 Nordeste 13 Nordeste 0 -- -- 75
2019-05-14 09:00:00 17.8 3 Sur 14 Sur 0 -- -- 79
2019-05-14 08:00:00 17.1 5 Sur 13 Sur 0 -- -- 78
2019-05-14 07:00:00 17.1 3 Sudoeste 11 Sur 0 -- -- 80
2019-05-14 06:00:00 16.5 7 Sur 15 Sur 0 -- -- 79
2019-05-14 05:00:00 16.1 4 Sur 12 Sudeste 0 -- -- 85
2019-05-14 04:00:00 15.5 8 Sur 12 Sur 0 -- -- 89
2019-05-14 03:00:00 13.9 6 Sur 8 Sur 0 -- -- 94
2019-05-14 02:00:00 14 5 Sur 9 Sur 0 -- -- 92
2019-05-14 01:00:00 14.3 3 Sur 7 Sur 0 -- -- 91
2019-05-14 00:00:00 15.1 3 Sur 6 Sur 0 -- -- 89
2019-05-13 23:00:00 16.4 4 Sudeste 8 Sudeste 0 -- -- 88
2019-05-13 22:00:00 17.2 4 Sudeste 7 Sudeste 0 -- -- 86
2019-05-13 21:00:00 18.2 4 Sudeste 10 Sudeste 0 -- -- 83
2019-05-13 20:00:00 19.2 3 Nordeste 12 Nordeste 0 -- -- 79
2019-05-13 19:00:00 20.1 5 Nordeste 15 Norte 0 -- -- 77
2019-05-13 18:00:00 20.5 6 Nordeste 17 Nordeste 0 -- -- 77
2019-05-13 17:00:00 20.3 7 Nordeste 21 Nordeste 0 -- -- 75
2019-05-13 16:00:00 20.3 7 Norte 21 Nordeste 0 -- -- 75
2019-05-13 15:00:00 20.4 9 Norte 28 Nordeste 0 -- -- 75
2019-05-13 14:00:00 22 11 Nordeste 27 Norte 0 -- -- 69
2019-05-13 13:00:00 21.7 10 Nordeste 26 Norte 0 -- -- 66
2019-05-13 12:00:00 20.8 9 Nordeste 22 Nordeste 0 -- -- 68
2019-05-13 11:00:00 20.6 8 Este 19 Este 0 -- -- 71
2019-05-13 10:00:00 19.8 5 Nordeste 15 Nordeste 0 -- -- 74
2019-05-13 09:00:00 17.6 3 Sudoeste 7 Sur 0 -- -- 81
2019-05-13 08:00:00 14.4 4 Sur 10 Sur 0 -- -- 87
2019-05-13 07:00:00 14.9 7 Sur 12 Sur 0 -- -- 84
2019-05-13 06:00:00 15.9 6 Sur 12 Sur 0 -- -- 80
2019-05-13 05:00:00 17 6 Sur 11 Sur 0 -- -- 73
2019-05-13 04:00:00 17.4 6 Sudeste 9 Sur 0 -- -- 75
2019-05-13 03:00:00 17.6 4 Sudoeste 13 Sur 0 -- -- 79
2019-05-13 02:00:00 17.5 4 Sur 14 Sur 0 -- -- 76
2019-05-13 01:00:00 17.5 9 Sur 13 Sur 0 -- -- 76
2019-05-13 00:00:00 17.8 5 Sudoeste 12 Oeste 0 -- -- 80
2019-05-12 23:00:00 18.1 0 Calma 8 Noroeste 0 -- -- 76
2019-05-12 22:00:00 18.4 3 Sudeste 10 Nordeste 0 -- -- 82
2019-05-12 21:00:00 18.6 5 Este 12 Sudeste 0 -- -- 81
2019-05-12 20:00:00 18.9 5 Nordeste 12 Nordeste 0 -- -- 80
2019-05-12 19:00:00 19.5 7 Nordeste 18 Nordeste 0 -- -- 77
2019-05-12 18:00:00 21 8 Nordeste 23 Nordeste 0 -- -- 71
2019-05-12 17:00:00 21.3 9 Nordeste 25 Nordeste 0 -- -- 69
2019-05-12 16:00:00 21 10 Nordeste 25 Norte 0 -- -- 70
2019-05-12 15:00:00 20.8 10 Nordeste 27 Norte 0 -- -- 71
2019-05-12 14:00:00 21.2 9 Nordeste 27 Nordeste 0 -- -- 69
2019-05-12 13:00:00 20.7 9 Nordeste 21 Este 0 -- -- 71
2019-05-12 12:00:00 20.5 9 Nordeste 23 Norte 0 -- -- 71
2019-05-12 11:00:00 19.8 8 Nordeste 17 Norte 0 -- -- 74
2019-05-12 10:00:00 18.7 3 Este 7 Este 0 -- -- 77
2019-05-12 09:00:00 15.8 3 Sur 9 Sur 0 -- -- 91
2019-05-12 08:00:00 13.9 5 Sur 9 Sur 0 -- -- 93
2019-05-12 07:00:00 13.8 5 Sur 10 Sur 0 -- -- 94
2019-05-12 06:00:00 13.1 6 Sur 9 Sur 0 -- -- 93
2019-05-12 05:00:00 13.4 3 Sur 8 Sur 0 -- -- 92
2019-05-12 04:00:00 14 5 Sur 8 Sur 0 -- -- 90
2019-05-12 03:00:00 14.3 5 Sur 7 Sur 0 -- -- 89
2019-05-12 02:00:00 15.1 5 Sur 9 Sur 0 -- -- 85
2019-05-12 01:00:00 15.8 4 Sur 7 Sur 0 -- -- 84
2019-05-12 00:00:00 17.2 2 Noroeste 6 Sudoeste 0 -- -- 75
2019-05-11 23:00:00 17.8 3 Sudoeste 9 Oeste 0 -- -- 75
2019-05-11 22:00:00 18.4 3 Este 12 Norte 0 -- -- 84
2019-05-11 21:00:00 18.6 6 Nordeste 12 Norte 0 -- -- 84
2019-05-11 20:00:00 18.8 5 Nordeste 14 Norte 0 -- -- 84
2019-05-11 19:00:00 19.6 4 Este 17 Norte 0 -- -- 80
2019-05-11 18:00:00 19.7 8 Nordeste 23 Nordeste 0 -- -- 81
2019-05-11 17:00:00 21.3 9 Nordeste 21 Nordeste 0 -- -- 73
2019-05-11 16:00:00 21.8 6 Nordeste 20 Norte 0 -- -- 71
2019-05-11 15:00:00 21.9 9 Norte 21 Nordeste 0 -- -- 68
2019-05-11 14:00:00 21.3 12 Norte 27 Nordeste 0 -- -- 68
2019-05-11 13:00:00 21 8 Nordeste 26 Nordeste 0 -- -- 66
2019-05-11 12:00:00 20.3 9 Nordeste 21 Nordeste 0 -- -- 66
2019-05-11 11:00:00 18.3 4 Nordeste 18 Nordeste 0 -- -- 74
2019-05-11 10:00:00 17.8 4 Noroeste 10 Nordeste 0 -- -- 75
2019-05-11 09:00:00 17.2 4 Sur 9 Sur 0 -- -- 75
2019-05-11 08:00:00 16.7 5 Sudeste 12 Sur 0 -- -- 73
2019-05-11 07:00:00 16.7 5 Sur 12 Sur 0 -- -- 74
2019-05-11 06:00:00 17 3 Norte 12 Nordeste 0 -- -- 74
2019-05-11 05:00:00 17 5 Sur 12 Sudeste 0 -- -- 74
2019-05-11 04:00:00 17.3 3 Sudeste 11 Este 0 -- -- 74
2019-05-11 03:00:00 17.5 3 Norte 13 Sur 0 -- -- 74
2019-05-11 02:00:00 17.5 5 Sudoeste 19 Norte 0 -- -- 74
2019-05-11 01:00:00 17.6 6 Nordeste 17 Norte 0 -- -- 74
2019-05-11 00:00:00 17.8 6 Nordeste 16 Este 0 -- -- 74
2019-05-10 23:00:00 17.8 5 Nordeste 15 Norte 0 -- -- 77
2019-05-10 22:00:00 17.8 6 Nordeste 18 Nordeste 0 -- -- 76
2019-05-10 21:00:00 18 7 Nordeste 14 Nordeste 0 -- -- 75
2019-05-10 20:00:00 18.4 4 Nordeste 14 Norte 0 -- -- 75
2019-05-10 19:00:00 18.6 8 Nordeste 20 Este 0 -- -- 72
2019-05-10 18:00:00 18.9 6 Nordeste 20 Este 0 -- -- 74
2019-05-10 17:00:00 19.3 8 Nordeste 17 Norte 0 -- -- 75
2019-05-10 16:00:00 19.9 7 Nordeste 20 Norte 0 -- -- 71
2019-05-10 15:00:00 21.4 10 Norte 22 Nordeste 0 -- -- 64
2019-05-10 14:00:00 20.8 10 Norte 22 Nordeste 0 -- -- 66
2019-05-10 13:00:00 20.2 9 Nordeste 22 Nordeste 0 -- -- 64
2019-05-10 12:00:00 20.2 8 Nordeste 18 Nordeste 0 -- -- 64
2019-05-10 11:00:00 19.2 8 Nordeste 19 Norte 0 -- -- 68
2019-05-10 10:00:00 18.9 6 Norte 15 Norte 0 -- -- 68
2019-05-10 09:00:00 19 7 Nordeste 15 Nordeste 0 -- -- 67
2019-05-10 08:00:00 17.5 0 Calma 12 Nordeste 0 -- -- 73
2019-05-10 07:00:00 17.3 3 Norte 9 Noroeste 0 -- -- 77
2019-05-10 06:00:00 17.4 2 Este 10 Norte 0 -- -- 81
2019-05-10 05:00:00 17.5 3 Este 12 Este 0 -- -- 81
2019-05-10 04:00:00 17.5 3 Norte 13 Este 0 -- -- 81
2019-05-10 03:00:00 16.9 4 Nordeste 13 Noroeste 0 -- -- 85
2019-05-10 02:00:00 17.4 6 Nordeste 13 Este 0 -- -- 84
2019-05-10 01:00:00 17.6 3 Norte 17 Norte 0 -- -- 85
2019-05-10 00:00:00 17.7 4 Nordeste 13 Nordeste 0 -- -- 86
2019-05-09 23:00:00 17.9 8 Nordeste 17 Nordeste 0 -- -- 87
2019-05-09 22:00:00 18.2 5 Nordeste 17 Nordeste 0 -- -- 86
2019-05-09 21:00:00 18.4 7 Nordeste 16 Nordeste 0 -- -- 84
2019-05-09 20:00:00 18.8 5 Nordeste 15 Nordeste 0 -- -- 77
2019-05-09 19:00:00 19.8 5 Nordeste 23 Este 0 -- -- 75
2019-05-09 18:00:00 20.4 9 Nordeste 19 Nordeste 0 -- -- 71
2019-05-09 17:00:00 22.1 9 Norte 24 Norte 0 -- -- 65
2019-05-09 16:00:00 21.5 11 Nordeste 26 Nordeste 0 -- -- 69
2019-05-09 15:00:00 21.2 12 Nordeste 23 Nordeste 0 -- -- 70
2019-05-09 14:00:00 21.4 10 Nordeste 22 Este 0 -- -- 63
2019-05-09 13:00:00 20.8 11 Nordeste 22 Nordeste 0 -- -- 73
2019-05-09 12:00:00 20.7 10 Nordeste 22 Nordeste 0 -- -- 72
2019-05-09 11:00:00 20.3 10 Nordeste 20 Norte 0 -- -- 74
2019-05-09 10:00:00 19.7 6 Este 15 Sudeste 0 -- -- 73
2019-05-09 09:00:00 18.4 3 Nordeste 8 Nordeste 0 -- -- 81
2019-05-09 08:00:00 17.4 3 Este 10 Nordeste 0 -- -- 83
2019-05-09 07:00:00 17.4 0 Calma 8 Norte 0 -- -- 82
2019-05-09 06:00:00 17.2 3 Norte 9 Oeste 0 -- -- 83
2019-05-09 05:00:00 17.5 0 Calma 10 Nordeste 0 -- -- 82
2019-05-09 04:00:00 17.7 0 Calma 7 Nordeste 0 -- -- 80
2019-05-09 03:00:00 17.8 0 Calma 9 Este 0 -- -- 78
2019-05-09 02:00:00 17.9 3 Nordeste 9 Nordeste 0 -- -- 81
2019-05-09 01:00:00 17.8 3 Sudoeste 8 Norte 0 -- -- 77
2019-05-09 00:00:00 18 3 Nordeste 11 Este 0 -- -- 82
2019-05-08 23:00:00 18.1 0 Calma 6 Este 0 -- -- 79
2019-05-08 22:00:00 17.9 2 Oeste 9 Nordeste 0 -- -- 79
2019-05-08 21:00:00 18.1 3 Sur 6 Sudeste 0 -- -- 79
2019-05-08 20:00:00 18.9 3 Norte 15 Nordeste 0 -- -- 78
2019-05-08 19:00:00 20.1 7 Nordeste 17 Este 0 -- -- 72
2019-05-08 18:00:00 20.3 10 Nordeste 19 Nordeste 0 -- -- 74
2019-05-08 17:00:00 20.6 9 Nordeste 20 Norte 0 -- -- 73
2019-05-08 16:00:00 21 8 Norte 21 Nordeste 0 -- -- 70
2019-05-08 15:00:00 20.3 12 Nordeste 24 Nordeste 0 -- -- 72
2019-05-08 14:00:00 20.2 11 Nordeste 21 Nordeste 0 -- -- 71
2019-05-08 13:00:00 20.5 10 Norte 22 Nordeste 0 -- -- 68
2019-05-08 12:00:00 19.4 9 Nordeste 19 Norte 0 -- -- 72
2019-05-08 11:00:00 18.5 9 Nordeste 15 Nordeste 0 -- -- 74
2019-05-08 10:00:00 17.9 6 Nordeste 14 Nordeste 0 -- -- 77
2019-05-08 09:00:00 17.6 2 Sur 16 Nordeste 0 -- -- 75
2019-05-08 08:00:00 16.9 2 Este 7 Norte 0 -- -- 80
2019-05-08 07:00:00 16.7 4 Nordeste 10 Nordeste 0 -- -- 81
2019-05-08 06:00:00 16.7 2 Nordeste 13 Nordeste 0 -- -- 81
2019-05-08 05:00:00 16.6 2 Norte 15 Nordeste 0 -- -- 81
2019-05-08 04:00:00 16.7 5 Nordeste 15 Norte 0 -- -- 79
2019-05-08 03:00:00 16.5 3 Este 17 Sudeste 0 -- -- 77
2019-05-08 02:00:00 15.4 6 Sudoeste 15 Nordeste 0 -- -- 80
2019-05-08 01:00:00 13.2 5 Sur 9 Sudeste 0 -- -- 85
2019-05-08 00:00:00 14.1 6 Sur 11 Sudeste 0 -- -- 81
2019-05-07 23:00:00 15 4 Sur 10 Sur 0 -- -- 80
2019-05-07 22:00:00 15.6 4 Sur 8 Sur 0 -- -- 79
2019-05-07 21:00:00 16.7 0 Calma 12 Este 0 -- -- 77
2019-05-07 20:00:00 17.5 5 Nordeste 15 Norte 0 -- -- 75
2019-05-07 19:00:00 19.2 7 Nordeste 21 Este 0 -- -- 68
2019-05-07 18:00:00 20 9 Nordeste 24 Nordeste 0 -- -- 63
2019-05-07 17:00:00 19.7 9 Nordeste 21 Nordeste 0 -- -- 64
2019-05-07 16:00:00 19.6 12 Nordeste 23 Nordeste 0 -- -- 63
2019-05-07 15:00:00 19.5 10 Nordeste 22 Norte 0 -- -- 64
2019-05-07 14:00:00 19.7 9 Nordeste 21 Norte 0 -- -- 62
2019-05-07 13:00:00 19.1 11 Norte 23 Norte 0 -- -- 64
2019-05-07 12:00:00 19.3 9 Nordeste 18 Norte 0 -- -- 62
2019-05-07 11:00:00 18.5 7 Norte 17 Norte 0 -- -- 63
2019-05-07 10:00:00 17 4 Nordeste 14 Nordeste 0 -- -- 70
2019-05-07 09:00:00 16.4 4 Nordeste 12 Norte 0 -- -- 71
2019-05-07 08:00:00 16 3 Nordeste 10 Nordeste 0 -- -- 73
2019-05-07 07:00:00 15.8 6 Nordeste 17 Nordeste 0 -- -- 71
2019-05-07 06:00:00 16 0 Calma 16 Nordeste 0 -- -- 72
2019-05-07 05:00:00 16.2 3 Norte 18 Este 0 -- -- 71
2019-05-07 04:00:00 16.2 4 Nordeste 18 Nordeste 0 -- -- 71
2019-05-07 03:00:00 16.3 6 Norte 16 Norte 0 -- -- 72
2019-05-07 02:00:00 16.5 4 Nordeste 10 Este 0 -- -- 71
2019-05-07 01:00:00 16.6 3 Este 12 Nordeste 0 -- -- 71
2019-05-07 00:00:00 16.8 5 Nordeste 19 Este 0 -- -- 69
2019-05-06 23:00:00 16.9 4 Nordeste 14 Nordeste 0 -- -- 74
2019-05-06 22:00:00 16.9 4 Este 17 Nordeste 0 -- -- 71
2019-05-06 21:00:00 17.1 5 Nordeste 14 Noroeste 0 -- -- 69
2019-05-06 20:00:00 17.5 6 Nordeste 17 Nordeste 0 -- -- 68
2019-05-06 19:00:00 18.2 8 Nordeste 21 Norte 0 -- -- 66
2019-05-06 18:00:00 20 8 Nordeste 23 Norte 0 -- -- 59
2019-05-06 17:00:00 20 10 Nordeste 21 Nordeste 0 -- -- 58
2019-05-06 16:00:00 20.1 9 Nordeste 21 Norte 0 -- -- 58
2019-05-06 15:00:00 19.8 10 Nordeste 22 Norte 0 -- -- 57
2019-05-06 14:00:00 19.6 10 Norte 23 Nordeste 0 -- -- 58
2019-05-06 13:00:00 19.3 9 Norte 19 Norte 0 -- -- 59
2019-05-06 12:00:00 18.9 8 Nordeste 18 Oeste 0 -- -- 59
2019-05-06 11:00:00 17.5 6 Norte 15 Norte 0 -- -- 64
2019-05-06 10:00:00 16.7 4 Norte 18 Norte 0 -- -- 65
2019-05-06 09:00:00 16.1 5 Norte 14 Nordeste 0 -- -- 68
2019-05-06 08:00:00 15.8 5 Norte 15 Norte 0 -- -- 69
2019-05-06 07:00:00 15.8 5 Norte 15 Nordeste 0 -- -- 69
2019-05-06 06:00:00 15.8 8 Nordeste 15 Norte 0 -- -- 68
2019-05-06 05:00:00 15.9 5 Nordeste 15 Nordeste 0 -- -- 69
2019-05-06 04:00:00 16 4 Nordeste 15 Nordeste 0 -- -- 67
2019-05-06 03:00:00 16.2 4 Nordeste 14 Nordeste 0 -- -- 68
2019-05-06 02:00:00 16.4 4 Nordeste 12 Nordeste 0 -- -- 68
2019-05-06 01:00:00 16.5 3 Nordeste 11 Nordeste 0 -- -- 67
2019-05-06 00:00:00 16.7 5 Nordeste 13 Nordeste 0 -- -- 66
2019-05-05 23:00:00 16.9 4 Nordeste 15 Norte 0 -- -- 67
2019-05-05 22:00:00 17 6 Nordeste 15 Nordeste 0 -- -- 67
2019-05-05 21:00:00 17.1 5 Nordeste 16 Nordeste 0 -- -- 66
2019-05-05 20:00:00 17.6 6 Nordeste 15 Norte 0 -- -- 62
2019-05-05 19:00:00 18.1 6 Nordeste 17 Noroeste 0 -- -- 62
2019-05-05 18:00:00 18.7 7 Nordeste 19 Nordeste 0 -- -- 62
2019-05-05 17:00:00 20 9 Norte 21 Noroeste 0 -- -- 55
2019-05-05 16:00:00 21 9 Norte 24 Norte 0 -- -- 52
2019-05-05 15:00:00 20.1 10 Nordeste 22 Noroeste 0 -- -- 57
2019-05-05 14:00:00 19.5 10 Nordeste 23 Este 0 -- -- 56
2019-05-05 13:00:00 19.3 8 Nordeste 16 Nordeste 0 -- -- 55
2019-05-05 12:00:00 17.9 8 Nordeste 18 Nordeste 0 -- -- 60
2019-05-05 11:00:00 17.2 7 Norte 15 Norte 0 -- -- 62
2019-05-05 10:00:00 16.9 7 Nordeste 17 Nordeste 0 -- -- 63
2019-05-05 09:00:00 16.5 3 Norte 17 Norte 0 -- -- 63
2019-05-05 08:00:00 15.9 0 Calma 11 Nordeste 0 -- -- 66
2019-05-05 07:00:00 15.9 5 Nordeste 12 Norte 0 -- -- 63
2019-05-05 06:00:00 16 4 Nordeste 12 Norte 0 -- -- 65
2019-05-05 05:00:00 16.1 4 Norte 13 Noroeste 0 -- -- 63
2019-05-05 04:00:00 16.2 5 Norte 15 Nordeste 0 -- -- 64
2019-05-05 03:00:00 16.4 5 Nordeste 13 Nordeste 0 -- -- 64
2019-05-05 02:00:00 16.5 6 Norte 20 Nordeste 0 -- -- 66
2019-05-05 01:00:00 16.6 5 Nordeste 20 Nordeste 0 -- -- 64
2019-05-05 00:00:00 16.6 8 Nordeste 23 Nordeste 0 -- -- 62
2019-05-04 23:00:00 16.7 7 Nordeste 20 Nordeste 0 -- -- 66
2019-05-04 22:00:00 16.7 9 Norte 19 Norte 0 -- -- 66
2019-05-04 21:00:00 16.8 7 Nordeste 14 Norte 0 -- -- 66
2019-05-04 20:00:00 17 6 Nordeste 20 Nordeste 0 -- -- 63
2019-05-04 19:00:00 17.3 7 Nordeste 14 Nordeste 0 -- -- 63
2019-05-04 18:00:00 17.8 6 Nordeste 17 Norte 0 -- -- 62
2019-05-04 17:00:00 18.6 9 Norte 18 Norte 0 -- -- 61
2019-05-04 16:00:00 19.4 9 Nordeste 21 Norte 0 -- -- 56
2019-05-04 15:00:00 19.9 9 Nordeste 25 Norte 0 -- -- 56
2019-05-04 14:00:00 20.1 10 Nordeste 23 Norte 0 -- -- 54
2019-05-04 13:00:00 19.3 10 Nordeste 20 Norte 0 -- -- 58
2019-05-04 12:00:00 18.9 9 Nordeste 23 Nordeste 0 -- -- 57
2019-05-04 11:00:00 18 9 Nordeste 21 Nordeste 0 -- -- 58
2019-05-04 10:00:00 16.9 7 Norte 22 Nordeste 0 -- -- 64
2019-05-04 09:00:00 16.3 5 Norte 15 Noroeste 0 -- -- 65
2019-05-04 08:00:00 15.6 2 Oeste 6 Este 0 -- -- 68
2019-05-04 07:00:00 15.7 3 Sudoeste 17 Este 0 -- -- 65
2019-05-04 06:00:00 16 4 Nordeste 18 Nordeste 0 -- -- 64
2019-05-04 05:00:00 16 6 Nordeste 20 Nordeste 0 -- -- 68
2019-05-04 04:00:00 16.2 7 Nordeste 20 Este 0 -- -- 69
2019-05-04 03:00:00 16.3 6 Sur 14 Este 0 -- -- 68
2019-05-04 02:00:00 16.4 7 Norte 19 Nordeste 0 -- -- 69
2019-05-04 01:00:00 16.3 9 Nordeste 19 Nordeste 0 -- -- 79
2019-05-04 00:00:00 16.3 9 Nordeste 17 Nordeste 0 -- -- 78
2019-05-03 23:00:00 16.2 5 Nordeste 21 Nordeste 0 -- -- 80
2019-05-03 22:00:00 16.4 12 Nordeste 22 Norte 0 -- -- 82
2019-05-03 21:00:00 16.5 9 Nordeste 21 Nordeste 0 -- -- 77
2019-05-03 20:00:00 16.8 11 Nordeste 23 Nordeste 0 -- -- 79
2019-05-03 19:00:00 17.2 8 Nordeste 25 Nordeste 0 -- -- 78
2019-05-03 18:00:00 17.7 8 Nordeste 22 Nordeste 0 -- -- 75
2019-05-03 17:00:00 18.8 8 Norte 21 Nordeste 0 -- -- 65
2019-05-03 16:00:00 18.8 10 Nordeste 21 Nordeste 0 -- -- 68
2019-05-03 15:00:00 20.1 6 Oeste 23 Norte 0 -- -- 57
2019-05-03 14:00:00 19.5 7 Norte 22 Nordeste 0 -- -- 59
2019-05-03 13:00:00 18.7 11 Nordeste 23 Este 0 -- -- 66
2019-05-03 12:00:00 18.3 7 Nordeste 18 Nordeste 0 -- -- 59
2019-05-03 11:00:00 18.2 6 Nordeste 13 Nordeste 0 -- -- 60
2019-05-03 10:00:00 17.6 6 Nordeste 15 Norte 0 -- -- 67
2019-05-03 09:00:00 16.7 3 Norte 12 Nordeste 0 -- -- 72
2019-05-03 08:00:00 15.9 2 Norte 6 Noroeste 0 -- -- 78
2019-05-03 07:00:00 15.4 2 Nordeste 13 Nordeste 0 -- -- 78
2019-05-03 06:00:00 16.3 9 Nordeste 22 Nordeste 0 -- -- 76
2019-05-03 05:00:00 16.4 6 Nordeste 17 Nordeste 0 -- -- 73
2019-05-03 04:00:00 16.2 6 Norte 17 Nordeste 0 -- -- 72
2019-05-03 03:00:00 16.3 4 Norte 13 Norte 0 -- -- 85
2019-05-03 02:00:00 16.3 4 Este 22 Nordeste 0 -- -- 87
2019-05-03 01:00:00 16.5 10 Norte 23 Nordeste 0 -- -- 87
2019-05-03 00:00:00 16.5 8 Norte 22 Nordeste 0 -- -- 86
2019-05-02 23:00:00 16.4 9 Nordeste 23 Norte 0 -- -- 83
2019-05-02 22:00:00 16.4 8 Nordeste 22 Nordeste 0 -- -- 80
2019-05-02 21:00:00 16.5 8 Nordeste 24 Norte 0 -- -- 79
2019-05-02 20:00:00 16.9 10 Nordeste 25 Este 0 -- -- 77
2019-05-02 19:00:00 17.4 9 Nordeste 18 Nordeste 0 -- -- 80
2019-05-02 18:00:00 18.1 7 Norte 18 Nordeste 0 -- -- 73
2019-05-02 17:00:00 18.5 8 Norte 25 Norte 0 -- -- 70
2019-05-02 16:00:00 19.2 12 Nordeste 26 Nordeste 0 -- -- 65
2019-05-02 15:00:00 19.7 11 Nordeste 30 Nordeste 0 -- -- 65
2019-05-02 14:00:00 19.9 11 Norte 26 Norte 0 -- -- 67
2019-05-02 13:00:00 19.8 11 Norte 22 Nordeste 0 -- -- 67
2019-05-02 12:00:00 19.7 9 Norte 21 Nordeste 0 -- -- 64
2019-05-02 11:00:00 18.2 10 Norte 21 Norte 0 -- -- 67
2019-05-02 10:00:00 17.3 10 Norte 22 Nordeste 0 -- -- 73
2019-05-02 09:00:00 16.5 13 Nordeste 28 Norte 0 -- -- 81
2019-05-02 08:00:00 15.9 8 Norte 33 Norte 0 -- -- 82
2019-05-02 07:00:00 16.2 6 Norte 22 Norte 0 -- -- 75
2019-05-02 06:00:00 15.9 8 Nordeste 30 Nordeste 0 -- -- 85
2019-05-02 05:00:00 16.3 8 Norte 22 Nordeste 0 -- -- 77
2019-05-02 04:00:00 16.4 10 Norte 30 Nordeste 0 -- -- 77
2019-05-02 03:00:00 16.5 9 Nordeste 27 Nordeste 0 -- -- 72
2019-05-02 02:00:00 16.5 10 Nordeste 33 Nordeste 0 -- -- 70
2019-05-02 01:00:00 16.6 7 Norte 27 Nordeste 0 -- -- 70
2019-05-02 00:00:00 16.7 6 Norte 26 Nordeste 0 -- -- 71
2019-05-01 23:00:00 16.6 8 Nordeste 22 Este 0 -- -- 74
2019-05-01 22:00:00 16.6 9 Nordeste 24 Nordeste 0 -- -- 78
2019-05-01 21:00:00 16.6 11 Nordeste 26 Nordeste 0 -- -- 77
2019-05-01 20:00:00 17 9 Nordeste 24 Nordeste 0 -- -- 78
2019-05-01 19:00:00 17.4 10 Nordeste 21 Nordeste 0 -- -- 69
2019-05-01 18:00:00 17.9 8 Norte 22 Nordeste 0 -- -- 68
2019-05-01 17:00:00 17.7 9 Nordeste 24 Nordeste 0 -- -- 73
2019-05-01 16:00:00 18.1 12 Nordeste 28 Nordeste 0 -- -- 69
2019-05-01 15:00:00 18.9 10 Nordeste 27 Nordeste 0 -- -- 64
2019-05-01 14:00:00 19.4 12 Nordeste 26 Norte 0 -- -- 64
2019-05-01 13:00:00 18.4 9 Nordeste 26 Nordeste 0 -- -- 69
2019-05-01 12:00:00 17.7 8 Norte 23 Norte 0 -- -- 75
2019-05-01 11:00:00 17.1 7 Norte 25 Este 0 -- -- 77
2019-05-01 10:00:00 16.5 9 Nordeste 25 Nordeste 0 -- -- 79
2019-05-01 09:00:00 16.4 8 Nordeste 23 Nordeste 0 -- -- 77
2019-05-01 08:00:00 16.3 7 Nordeste 25 Nordeste 0 -- -- 82
2019-05-01 07:00:00 16.2 9 Nordeste 24 Nordeste 0 -- -- 83
2019-05-01 06:00:00 16.3 9 Nordeste 22 Nordeste 0 -- -- 85
2019-05-01 05:00:00 16.4 5 Norte 13 Norte 0 -- -- 85
2019-05-01 04:00:00 16.4 5 Nordeste 17 Nordeste 0 -- -- 86
2019-05-01 03:00:00 16.6 8 Nordeste 19 Nordeste 0 -- -- 86
2019-05-01 02:00:00 16.9 0 Calma 17 Nordeste 0 -- -- 82
2019-05-01 01:00:00 16.9 5 Nordeste 24 Nordeste 0 -- -- 83
2019-05-01 00:00:00 16.8 10 Nordeste 26 Norte 0 -- -- 84
2019-04-30 23:00:00 16.9 10 Nordeste 23 Norte 0 -- -- 86
2019-04-30 22:00:00 17.1 6 Nordeste 17 Nordeste 0 -- -- 85
2019-04-30 21:00:00 17.1 7 Nordeste 21 Nordeste 0 -- -- 84
2019-04-30 20:00:00 17.5 6 Norte 21 Nordeste 0 -- -- 82
2019-04-30 19:00:00 17.6 9 Nordeste 22 Nordeste 0 -- -- 79
2019-04-30 18:00:00 18.2 8 Nordeste 21 Nordeste 0 -- -- 76
2019-04-30 17:00:00 18.4 10 Nordeste 25 Norte 0 -- -- 78
2019-04-30 16:00:00 18.9 9 Nordeste 22 Norte 0 -- -- 78
2019-04-30 15:00:00 19.4 10 Nordeste 23 Nordeste 0 -- -- 75
2019-04-30 14:00:00 18.9 10 Nordeste 22 Nordeste 0 -- -- 74
2019-04-30 13:00:00 18.9 10 Nordeste 21 Nordeste 0 -- -- 76
2019-04-30 12:00:00 18.6 6 Nordeste 19 Norte 0 -- -- 73
2019-04-30 11:00:00 18 6 Nordeste 16 Norte 0 -- -- 74
2019-04-30 10:00:00 17.4 3 Norte 13 Nordeste 0 -- -- 77
2019-04-30 09:00:00 16.8 3 Nordeste 13 Nordeste 0 -- -- 79
2019-04-30 08:00:00 16.7 5 Norte 12 Norte 0 -- -- 78
2019-04-30 07:00:00 16.7 5 Nordeste 15 Norte 0 -- -- 80
2019-04-30 06:00:00 16.9 4 Este 10 Norte 0 -- -- 81
2019-04-30 05:00:00 16.9 5 Nordeste 11 Nordeste 0 -- -- 79
2019-04-30 04:00:00 17 6 Nordeste 16 Nordeste 0 -- -- 80
2019-04-30 03:00:00 17.2 3 Nordeste 8 Este 0 -- -- 79
2019-04-30 02:00:00 17.1 4 Nordeste 14 Norte 0 -- -- 78
2019-04-30 01:00:00 17.1 4 Norte 11 Nordeste 0 -- -- 79
2019-04-30 00:00:00 17.1 3 Nordeste 14 Nordeste 0 -- -- 80
2019-04-29 23:00:00 17.2 5 Nordeste 15 Nordeste 0 -- -- 80
2019-04-29 22:00:00 17.1 7 Nordeste 17 Nordeste 0 -- -- 82
2019-04-29 21:00:00 17.2 8 Nordeste 19 Nordeste 0 -- -- 84
2019-04-29 20:00:00 17.6 6 Norte 18 Nordeste 0 -- -- 84
2019-04-29 19:00:00 18.1 6 Nordeste 17 Nordeste 0 -- -- 78
2019-04-29 18:00:00 18.2 6 Nordeste 17 Este 0 -- -- 78
2019-04-29 17:00:00 18.5 7 Nordeste 17 Norte 0 -- -- 77
2019-04-29 16:00:00 19.4 9 Norte 20 Nordeste 0 -- -- 72
2019-04-29 15:00:00 20.4 9 Norte 27 Nordeste 0 -- -- 68
2019-04-29 14:00:00 20.4 10 Nordeste 24 Norte 0 -- -- 67
2019-04-29 13:00:00 20.1 8 Nordeste 23 Nordeste 0 -- -- 67
2019-04-29 12:00:00 19.7 9 Nordeste 20 Nordeste 0 -- -- 67
2019-04-29 11:00:00 19.4 7 Norte 18 Nordeste 0 -- -- 69
2019-04-29 10:00:00 17.9 4 Sudoeste 10 Sudoeste 0 -- -- 71
2019-04-29 09:00:00 16.5 4 Sur 12 Sur 0 -- -- 73
2019-04-29 08:00:00 15.9 8 Sur 14 Sur 0 -- -- 72
2019-04-29 07:00:00 15.7 7 Sur 13 Sur 0 -- -- 73
2019-04-29 06:00:00 15.9 5 Sur 11 Sur 0 -- -- 73
2019-04-29 05:00:00 16.2 3 Noroeste 10 Sur 0 -- -- 77
2019-04-29 04:00:00 16.3 3 Este 10 Sur 0 -- -- 76
2019-04-29 03:00:00 16 7 Sur 12 Sur 0 -- -- 75
2019-04-29 02:00:00 16 6 Sur 13 Sur 0 -- -- 74
2019-04-29 01:00:00 16.1 6 Sur 12 Sur 0 -- -- 73
2019-04-29 00:00:00 16.4 2 Sur 12 Sur 0 -- -- 74
2019-04-28 23:00:00 16.6 6 Sur 11 Sur 0 -- -- 71
2019-04-28 22:00:00 16.9 4 Sudeste 11 Sudeste 0 -- -- 72
2019-04-28 21:00:00 17 4 Nordeste 12 Norte 0 -- -- 77
2019-04-28 20:00:00 17.2 5 Nordeste 17 Norte 0 -- -- 79
2019-04-28 19:00:00 17.6 7 Nordeste 18 Nordeste 0 -- -- 75
2019-04-28 18:00:00 17.6 8 Nordeste 18 Norte 0 -- -- 73
2019-04-28 17:00:00 18 8 Nordeste 18 Nordeste 0 -- -- 73
2019-04-28 16:00:00 18.4 9 Nordeste 21 Nordeste 0 -- -- 72
2019-04-28 15:00:00 19 9 Nordeste 26 Nordeste 0 -- -- 68
2019-04-28 14:00:00 20 12 Nordeste 26 Nordeste 0 -- -- 66
2019-04-28 13:00:00 19.8 10 Nordeste 22 Nordeste 0 -- -- 66
2019-04-28 12:00:00 18.9 9 Norte 19 Nordeste 0 -- -- 69
2019-04-28 11:00:00 17.6 9 Nordeste 19 Nordeste 0 -- -- 75
2019-04-28 10:00:00 17.5 8 Nordeste 17 Norte 0 -- -- 76
2019-04-28 09:00:00 16.5 3 Nordeste 13 Nordeste 0 -- -- 73
2019-04-28 08:00:00 16.3 5 Nordeste 16 Nordeste 0 -- -- 82
2019-04-28 07:00:00 16.3 5 Norte 13 Norte 0 -- -- 77
2019-04-28 06:00:00 16.4 3 Norte 13 Norte 0 -- -- 73
2019-04-28 05:00:00 16.4 6 Norte 15 Noroeste 0 -- -- 78
2019-04-28 04:00:00 16.4 4 Norte 11 Noroeste 0 -- -- 82
2019-04-28 03:00:00 16.4 3 Nordeste 9 Nordeste 0 -- -- 81
2019-04-28 02:00:00 16.5 4 Nordeste 9 Este 0 -- -- 80
2019-04-28 01:00:00 16.6 3 Nordeste 14 Nordeste 0 -- -- 75
2019-04-28 00:00:00 16.6 2 Nordeste 14 Nordeste 0 -- -- 75
2019-04-27 23:00:00 16.6 4 Nordeste 16 Nordeste 0 -- -- 72
2019-04-27 22:00:00 16.6 5 Nordeste 13 Nordeste 0 -- -- 72
2019-04-27 21:00:00 16.6 6 Nordeste 17 Nordeste 0 -- -- 74
2019-04-27 20:00:00 16.7 7 Nordeste 19 Nordeste 0 -- -- 78
2019-04-27 19:00:00 17 6 Nordeste 20 Norte 0 -- -- 73
2019-04-27 18:00:00 17.3 8 Nordeste 22 Nordeste 0 -- -- 71
2019-04-27 17:00:00 17.5 10 Norte 20 Norte 0 -- -- 71
2019-04-27 16:00:00 18.1 10 Norte 20 Norte 0 -- -- 69
2019-04-27 15:00:00 18 7 Nordeste 20 Nordeste 0 -- -- 66
2019-04-27 14:00:00 17.9 12 Norte 24 Norte 0 -- -- 68
2019-04-27 13:00:00 17.6 6 Norte 24 Norte 0 -- -- 71
2019-04-27 12:00:00 17.6 10 Norte 21 Nordeste 0 -- -- 67
2019-04-27 11:00:00 16.8 7 Nordeste 19 Nordeste 0 -- -- 67
2019-04-27 10:00:00 16.5 10 Norte 21 Este 0 -- -- 71
2019-04-27 09:00:00 16.1 9 Norte 25 Nordeste 0 -- -- 68
2019-04-27 08:00:00 15.6 8 Norte 23 Nordeste 0 -- -- 77
2019-04-27 07:00:00 15.8 6 Nordeste 23 Nordeste 0 -- -- 71
2019-04-27 06:00:00 15.7 8 Nordeste 25 Nordeste 0 -- -- 69
2019-04-27 05:00:00 15.9 10 Norte 22 Norte 0 -- -- 72
2019-04-27 04:00:00 15.8 6 Norte 27 Nordeste 0 -- -- 78
2019-04-27 03:00:00 16 4 Norte 26 Este 0 -- -- 76
2019-04-27 02:00:00 16.3 8 Norte 33 Norte 0 -- -- 72
2019-04-27 01:00:00 16.4 10 Nordeste 26 Nordeste 0 -- -- 76
2019-04-27 00:00:00 16.3 13 Norte 32 Nordeste 0 -- -- 79
2019-04-26 23:00:00 16.5 8 Norte 29 Norte 0 -- -- 78
2019-04-26 22:00:00 16.6 8 Norte 27 Norte 0 -- -- 76
2019-04-26 21:00:00 16.6 9 Nordeste 28 Nordeste 0 -- -- 71
2019-04-26 20:00:00 16.9 12 Nordeste 30 Norte 0 -- -- 76
2019-04-26 19:00:00 17.2 9 Norte 25 Norte 0 -- -- 76
2019-04-26 18:00:00 17.7 6 Norte 23 Nordeste 0 -- -- 68
2019-04-26 17:00:00 17.8 7 Nordeste 22 Nordeste 0 -- -- 70
2019-04-26 16:00:00 18.1 9 Norte 25 Norte 0 -- -- 65
2019-04-26 15:00:00 17.8 10 Nordeste 27 Norte 0 -- -- 70
2019-04-26 14:00:00 17.3 9 Norte 29 Nordeste 0 -- -- 71
2019-04-26 13:00:00 17 13 Norte 27 Nordeste 0 -- -- 70
2019-04-26 12:00:00 16.5 13 Norte 33 Norte 0 -- -- 76
2019-04-26 11:00:00 15.9 13 Nordeste 32 Norte 0 -- -- 88
2019-04-26 10:00:00 15.9 6 Norte 29 Norte 0 -- -- 85
2019-04-26 09:00:00 15.8 14 Norte 33 Norte 0 -- -- 87
2019-04-26 08:00:00 16.2 7 Norte 17 Norte 0 -- -- 84
2019-04-26 07:00:00 16 5 Norte 30 Nordeste 0 -- -- 86
2019-04-26 06:00:00 16.4 7 Norte 24 Norte 0 -- -- 86
2019-04-26 05:00:00 16.3 4 Norte 15 Norte 0 -- -- 87
2019-04-26 04:00:00 16.4 4 Norte 16 Noroeste 0 -- -- 87
2019-04-26 03:00:00 16.7 4 Norte 15 Nordeste 0 -- -- 88
2019-04-26 02:00:00 16.8 4 Nordeste 15 Norte 0 -- -- 87
2019-04-26 01:00:00 16.9 4 Norte 18 Norte 0 -- -- 82
2019-04-26 00:00:00 17.1 7 Nordeste 21 Nordeste 0 -- -- 81